Time;durP1;ratioP1;P1;durP2;ratioP2;P2;SDS_P1;SDS_P2;PMS_P1;PMS_P2;Temp;Humidity;BMP_temperature;BMP_pressure;BME280_temperature;BME280_humidity;BME280_pressure;Samples;Min_cycle;Max_cycle;Signal;HPM_P1;HPM_P2
2021/05/13 00:01:30;;;;;;;8.38;4.47;;;;;;;12.13;66.56;99862.63;1715362;83;21011;-52
2021/05/13 00:03:56;;;;;;;8.35;4.80;;;;;;;12.05;67.46;99868.25;1715563;83;20977;-52
2021/05/13 00:06:23;;;;;;;6.53;4.20;;;;;;;12.00;67.70;99864.19;1715473;83;21798;-52
2021/05/13 00:08:55;;;;;;;6.42;4.17;;;;;;;11.94;67.93;99860.69;1705736;82;20993;-52
2021/05/13 00:11:20;;;;;;;5.70;3.95;;;;;;;11.92;68.48;99866.45;1741722;82;20989;-52
2021/05/13 00:13:47;;;;;;;5.28;3.45;;;;;;;11.92;68.35;99867.02;1742248;82;21683;-52
2021/05/13 00:16:13;;;;;;;4.50;3.75;;;;;;;11.92;68.52;99860.95;1742520;82;21016;-52
2021/05/13 00:18:39;;;;;;;5.58;3.65;;;;;;;11.93;68.71;99857.63;1742306;82;21072;-52
2021/05/13 00:21:06;;;;;;;6.15;4.42;;;;;;;11.92;68.68;99857.39;1742345;82;21024;-52
2021/05/13 00:23:33;;;;;;;7.78;4.62;;;;;;;11.90;69.06;99855.48;1742650;82;21005;-52
2021/05/13 00:25:59;;;;;;;7.65;4.95;;;;;;;11.86;68.78;99851.67;1742355;82;20977;-52
2021/05/13 00:28:26;;;;;;;5.78;4.83;;;;;;;11.87;69.42;99856.08;1742587;82;22246;-52
2021/05/13 00:30:52;;;;;;;7.45;4.80;;;;;;;11.83;69.71;99850.90;1742453;82;21146;-52
2021/05/13 00:33:19;;;;;;;6.85;5.30;;;;;;;11.79;70.04;99849.84;1742153;82;21582;-52
2021/05/13 00:35:45;;;;;;;7.08;4.20;;;;;;;11.75;70.20;99847.69;1742311;82;21051;-52
2021/05/13 00:38:12;;;;;;;5.60;4.12;;;;;;;11.73;69.82;99845.80;1742180;82;20965;-52
2021/05/13 00:40:39;;;;;;;10.00;4.50;;;;;;;11.69;68.87;99842.00;1742280;80;21631;-52
2021/05/13 00:43:05;;;;;;;7.85;4.62;;;;;;;11.65;68.69;99834.08;1742568;82;21038;-52
2021/05/13 00:45:32;;;;;;;7.50;4.80;;;;;;;11.65;68.56;99832.70;1742094;82;20993;-52
2021/05/13 00:48:02;;;;;;;7.90;4.87;;;;;;;11.65;68.31;99830.52;1742479;82;20976;-52
2021/05/13 00:50:28;;;;;;;9.78;4.30;;;;;;;11.62;68.22;99826.96;1741934;82;21677;-52
2021/05/13 00:52:54;;;;;;;5.28;4.25;;;;;;;11.57;68.23;99831.44;1742436;82;21024;-53
2021/05/13 00:55:21;;;;;;;5.70;4.15;;;;;;;11.54;68.35;99825.13;1739924;82;21763;-52
2021/05/13 00:57:50;;;;;;;6.65;4.53;;;;;;;11.52;68.46;99821.06;1737022;82;20981;-52
2021/05/13 01:00:43;;;;;;;7.35;5.28;;;;;;;11.49;68.64;99825.75;1737115;82;20996;-52
2021/05/13 01:02:46;;;;;;;10.38;5.55;;;;;;;11.46;68.77;99821.68;1730062;82;22100;-52
2021/05/13 01:05:12;;;;;;;8.30;5.83;;;;;;;11.43;69.00;99818.69;1737169;82;21013;-52
2021/05/13 01:07:40;;;;;;;8.00;5.35;;;;;;;11.38;69.18;99819.57;1737035;82;21017;-52
2021/05/13 01:10:09;;;;;;;6.75;4.65;;;;;;;11.34;69.35;99816.58;1737039;82;21040;-52
2021/05/13 01:12:41;;;;;;;7.50;5.85;;;;;;;11.34;69.50;99814.39;1737189;82;20965;-52
2021/05/13 01:15:21;;;;;;;8.08;5.78;;;;;;;11.32;69.60;99811.13;1737078;82;20992;-52
2021/05/13 01:17:53;;;;;;;8.55;5.90;;;;;;;11.31;69.74;99819.92;1735926;82;20957;-52
2021/05/13 01:20:12;;;;;;;8.18;5.22;;;;;;;11.29;69.85;99822.16;1734595;82;20996;-52
2021/05/13 01:22:38;;;;;;;7.25;4.92;;;;;;;11.28;70.16;99821.88;1737137;82;21040;-52
2021/05/13 01:25:07;;;;;;;6.08;4.08;;;;;;;11.22;70.56;99816.19;1737069;82;20945;-52
2021/05/13 01:27:34;;;;;;;7.87;4.97;;;;;;;11.18;70.65;99813.19;1737118;82;21041;-52
2021/05/13 01:30:02;;;;;;;6.67;4.03;;;;;;;11.17;70.76;99811.55;1737215;82;20990;-52
2021/05/13 01:32:28;;;;;;;6.62;4.55;;;;;;;11.18;70.89;99806.89;1737065;82;21720;-52
2021/05/13 01:34:54;;;;;;;8.55;4.47;;;;;;;11.18;70.85;99811.81;1737176;82;21004;-52
2021/05/13 01:37:22;;;;;;;6.65;4.37;;;;;;;11.19;70.89;99808.53;1737236;82;21052;-52
2021/05/13 01:39:50;;;;;;;5.08;4.00;;;;;;;11.18;70.93;99808.27;1736942;81;20981;-52
2021/05/13 01:42:17;;;;;;;5.15;4.00;;;;;;;11.14;71.12;99802.52;1736906;82;21686;-52
2021/05/13 01:44:44;;;;;;;5.37;4.30;;;;;;;11.11;71.28;99802.30;1737021;82;21048;-52
2021/05/13 01:47:11;;;;;;;8.23;5.00;;;;;;;11.05;71.26;99790.55;1736922;82;20981;-52
2021/05/13 01:49:39;;;;;;;10.65;5.42;;;;;;;11.02;71.35;99798.00;1736853;82;21032;-52
2021/05/13 01:52:06;;;;;;;10.85;5.95;;;;;;;10.98;71.34;99799.12;1737075;82;21045;-52
2021/05/13 01:54:32;;;;;;;8.45;5.95;;;;;;;10.96;71.42;99801.36;1737174;82;22226;-52
2021/05/13 01:57:06;;;;;;;7.30;5.53;;;;;;;10.96;71.50;99804.64;1736807;82;21096;-52
2021/05/13 01:59:32;;;;;;;10.25;6.12;;;;;;;10.96;71.45;99815.09;1737311;82;20977;-52
2021/05/13 02:02:00;;;;;;;9.88;6.00;;;;;;;10.96;71.56;99804.64;1736944;82;21012;-52
2021/05/13 02:04:28;;;;;;;8.90;6.75;;;;;;;10.96;71.70;99815.63;1736979;82;20989;-52
2021/05/13 02:06:54;;;;;;;10.93;7.75;;;;;;;10.95;71.77;99812.08;1737212;82;20996;-52
2021/05/13 02:09:21;;;;;;;9.95;8.60;;;;;;;10.96;71.73;99812.89;1737016;82;21082;-52
2021/05/13 02:11:47;;;;;;;15.10;10.03;;;;;;;10.94;71.77;99811.00;1737048;82;21572;-52
2021/05/13 02:14:15;;;;;;;15.60;10.23;;;;;;;10.93;71.83;99807.98;1737101;82;21020;-52
2021/05/13 02:16:43;;;;;;;14.70;11.63;;;;;;;10.93;71.88;99805.23;1737067;82;20997;-52
2021/05/13 02:19:09;;;;;;;17.42;11.80;;;;;;;10.92;72.03;99803.05;1737249;82;21579;-52
2021/05/13 02:21:35;;;;;;;14.15;10.88;;;;;;;10.90;72.03;99803.87;1737140;82;21097;-52
2021/05/13 02:24:03;;;;;;;22.48;12.30;;;;;;;10.87;72.09;99807.21;1737125;82;21076;-52
2021/05/13 02:26:29;;;;;;;14.05;10.75;;;;;;;10.84;72.22;99806.42;1737050;82;20981;-52
2021/05/13 02:28:55;;;;;;;24.55;12.85;;;;;;;10.80;72.31;99804.83;1737121;82;21616;-52
2021/05/13 02:31:22;;;;;;;17.67;9.98;;;;;;;10.78;72.37;99806.22;1737166;82;21069;-53
2021/05/13 02:33:49;;;;;;;14.75;10.20;;;;;;;10.76;72.44;99805.14;1737031;82;21054;-53
2021/05/13 02:36:16;;;;;;;12.30;9.70;;;;;;;10.76;72.58;99807.05;1737000;82;21025;-52
2021/05/13 02:38:42;;;;;;;11.00;8.38;;;;;;;10.71;72.65;99804.61;1736971;82;21571;-52
2021/05/13 02:41:09;;;;;;;8.83;7.28;;;;;;;10.68;72.70;99803.82;1737159;81;21032;-52
2021/05/13 02:43:36;;;;;;;12.65;7.03;;;;;;;10.65;72.84;99805.77;1737270;82;20997;-52
2021/05/13 02:46:02;;;;;;;9.90;6.53;;;;;;;10.63;72.93;99804.42;1736995;82;21701;-52
2021/05/13 02:48:29;;;;;;;8.18;6.08;;;;;;;10.62;73.01;99805.55;1737108;82;21001;-53
2021/05/13 02:50:55;;;;;;;8.15;5.90;;;;;;;10.57;73.24;99805.02;1737066;82;21001;-52
2021/05/13 02:53:22;;;;;;;5.75;4.55;;;;;;;10.55;73.24;99801.75;1737196;82;21026;-53
2021/05/13 02:55:48;;;;;;;5.83;4.80;;;;;;;10.54;73.21;99799.58;1739457;82;21040;-53
2021/05/13 02:58:15;;;;;;;6.28;4.78;;;;;;;10.56;73.39;99799.28;1745358;82;21076;-52
2021/05/13 03:01:04;;;;;;;10.45;5.55;;;;;;;10.60;73.32;99796.77;1745254;82;21088;-53
2021/05/13 03:03:19;;;;;;;7.35;4.50;;;;;;;10.61;73.31;99803.34;1742873;82;20973;-52
2021/05/13 03:05:45;;;;;;;7.12;4.62;;;;;;;10.62;73.42;99797.31;1745420;82;20995;-53
2021/05/13 03:08:14;;;;;;;7.25;4.60;;;;;;;10.60;73.53;99809.93;1745172;81;20994;-52
2021/05/13 03:13:08;;;;;;;11.63;4.75;;;;;;;10.54;73.86;99809.72;1745166;82;20989;-52
2021/05/13 03:15:34;;;;;;;8.88;4.72;;;;;;;10.54;74.03;99810.56;1745149;82;20956;-52
2021/05/13 03:18:01;;;;;;;13.08;5.08;;;;;;;10.58;74.13;99804.48;1745393;82;21504;-53
2021/05/13 03:20:41;;;;;;;9.98;5.42;;;;;;;10.60;74.19;99809.93;1745127;82;21020;-53
2021/05/13 03:23:13;;;;;;;10.20;5.05;;;;;;;10.66;74.21;99808.80;1745257;81;21105;-53
2021/05/13 03:25:39;;;;;;;9.08;5.70;;;;;;;10.76;74.01;99810.63;1744117;82;21674;-53
2021/05/13 03:28:09;;;;;;;6.60;4.97;;;;;;;10.86;73.74;99813.80;1745383;82;20941;-52
2021/05/13 03:30:44;;;;;;;12.37;5.53;;;;;;;10.95;73.48;99809.33;1745208;81;21028;-52
2021/05/13 03:33:11;;;;;;;11.33;5.60;;;;;;;11.05;73.15;99818.83;1745303;82;20961;-52
2021/05/13 03:35:38;;;;;;;8.98;5.30;;;;;;;11.13;73.05;99811.89;1745347;82;21059;-53
2021/05/13 03:38:06;;;;;;;13.22;6.05;;;;;;;11.22;72.73;99816.19;1745145;82;20941;-52
2021/05/13 03:40:33;;;;;;;15.83;5.83;;;;;;;11.24;72.53;99819.45;1745359;80;20969;-53
2021/05/13 03:43:00;;;;;;;7.08;5.50;;;;;;;11.26;72.60;99824.66;1745369;81;20965;-53
2021/05/13 03:45:27;;;;;;;17.02;6.50;;;;;;;11.35;72.66;99819.59;1745317;82;21547;-53
2021/05/13 03:47:53;;;;;;;9.18;5.20;;;;;;;11.45;72.40;99821.97;1745379;82;21115;-52
2021/05/13 03:50:20;;;;;;;14.03;6.65;;;;;;;11.53;72.08;99816.63;1745202;82;20996;-53
2021/05/13 03:52:47;;;;;;;8.58;6.12;;;;;;;11.62;71.87;99825.59;1745346;82;21563;-52
2021/05/13 03:55:13;;;;;;;11.97;6.65;;;;;;;11.66;71.61;99821.13;1745308;82;21172;-52
2021/05/13 03:57:41;;;;;;;8.63;6.15;;;;;;;11.70;71.46;99826.30;1737448;81;21044;-53
2021/05/13 04:00:12;;;;;;;8.83;6.33;;;;;;;11.73;71.31;99824.34;1737184;82;21061;-53
2021/05/13 04:02:37;;;;;;;11.22;6.90;;;;;;;11.74;71.20;99825.41;1736179;82;21008;-52
2021/05/13 04:05:06;;;;;;;11.85;6.58;;;;;;;11.75;71.12;99829.81;1737180;82;21012;-53
2021/05/13 04:07:35;;;;;;;13.05;6.17;;;;;;;11.80;71.13;99836.36;1737106;82;21005;-53
2021/05/13 04:10:08;;;;;;;11.22;7.25;;;;;;;11.83;71.09;99827.52;1737078;82;20953;-52
2021/05/13 04:12:38;;;;;;;13.20;5.80;;;;;;;11.85;70.95;99832.17;1737148;82;21064;-53
2021/05/13 04:15:09;;;;;;;12.18;6.03;;;;;;;11.86;70.70;99835.17;1736952;82;21619;-52
2021/05/13 04:17:37;;;;;;;9.78;5.83;;;;;;;11.85;70.58;99830.80;1737228;82;21384;-53
2021/05/13 04:20:05;;;;;;;9.40;5.80;;;;;;;11.85;70.26;99825.30;1737279;82;21079;-53
2021/05/13 04:22:31;;;;;;;21.48;6.47;;;;;;;11.83;70.45;99829.73;1737278;82;20957;-52
2021/05/13 04:24:58;;;;;;;14.03;6.30;;;;;;;11.87;70.51;99831.31;1737180;82;21662;-52
2021/05/13 04:27:24;;;;;;;7.83;5.97;;;;;;;11.92;70.28;99829.88;1737021;82;21025;-53
2021/05/13 04:29:51;;;;;;;12.90;5.87;;;;;;;11.98;69.93;99821.83;1737245;82;21008;-53
2021/05/13 04:32:17;;;;;;;16.27;6.40;;;;;;;12.04;69.44;99823.38;1737084;82;21001;-52
2021/05/13 04:34:43;;;;;;;11.70;5.50;;;;;;;12.09;69.39;99819.75;1737152;82;21001;-53
2021/05/13 04:37:10;;;;;;;14.25;5.35;;;;;;;12.17;68.96;99822.38;1737298;82;21502;-52
2021/05/13 04:39:36;;;;;;;9.18;5.15;;;;;;;12.25;68.92;99815.63;1737187;82;22234;-53
2021/05/13 04:42:04;;;;;;;9.33;6.17;;;;;;;12.37;68.58;99811.03;1737115;81;21003;-53
2021/05/13 04:44:33;;;;;;;17.87;6.85;;;;;;;12.47;68.37;99814.18;1737205;82;21638;-53
2021/05/13 04:47:00;;;;;;;10.80;6.90;;;;;;;12.56;68.32;99817.06;1737259;82;21017;-53
2021/05/13 04:49:27;;;;;;;18.40;8.20;;;;;;;12.64;68.44;99818.33;1737015;82;21792;-53
2021/05/13 04:51:53;;;;;;;15.83;7.50;;;;;;;12.71;68.45;99811.29;1736837;82;21029;-53
2021/05/13 04:54:20;;;;;;;35.68;8.73;;;;;;;12.77;68.30;99815.61;1737193;82;21588;-53
2021/05/13 04:56:50;;;;;;;13.83;7.37;;;;;;;12.86;68.33;99819.02;1737149;82;21056;-52
2021/05/13 04:59:16;;;;;;;14.60;7.20;;;;;;;12.96;68.13;99813.34;1737215;82;20996;-52
2021/05/13 05:01:42;;;;;;;7.92;5.78;;;;;;;13.07;67.70;99816.13;1736955;82;21195;-52
2021/05/13 05:04:09;;;;;;;8.28;5.72;;;;;;;13.23;66.28;99818.60;1737037;82;20981;-53
2021/05/13 05:06:36;;;;;;;16.65;9.38;;;;;;;13.30;64.27;99816.25;1737193;82;21005;-54
2021/05/13 05:09:02;;;;;;;11.43;6.12;;;;;;;13.32;63.74;99815.41;1737150;82;21033;-52
2021/05/13 05:11:28;;;;;;;11.90;7.40;;;;;;;13.43;63.58;99811.89;1737162;82;21052;-52
2021/05/13 05:13:55;;;;;;;7.35;5.95;;;;;;;13.48;63.22;99810.41;1736915;82;21075;-52
2021/05/13 05:16:22;;;;;;;10.80;6.80;;;;;;;13.49;62.68;99818.95;1736909;82;21000;-52
2021/05/13 05:18:48;;;;;;;11.20;6.83;;;;;;;13.48;62.58;99810.41;1737012;82;21009;-52
2021/05/13 05:21:14;;;;;;;9.13;6.80;;;;;;;13.43;61.74;99807.75;1737131;82;21045;-55
2021/05/13 05:23:41;;;;;;;13.95;7.42;;;;;;;13.36;62.09;99811.48;1737232;82;21085;-52
2021/05/13 05:26:07;;;;;;;13.85;8.35;;;;;;;13.33;62.27;99811.50;1737024;82;21044;-52
2021/05/13 05:28:34;;;;;;;13.22;6.85;;;;;;;13.29;62.18;99811.88;1737008;82;21005;-52
2021/05/13 05:31:01;;;;;;;22.32;7.90;;;;;;;13.29;61.99;99819.58;1737187;82;20973;-54
2021/05/13 05:33:27;;;;;;;14.23;6.78;;;;;;;13.26;61.88;99815.23;1736938;82;21017;-54
2021/05/13 05:35:54;;;;;;;15.72;6.97;;;;;;;13.24;62.07;99809.21;1737006;82;20961;-54
2021/05/13 05:38:20;;;;;;;13.83;7.37;;;;;;;13.23;62.24;99811.16;1737053;82;21584;-54
2021/05/13 05:40:47;;;;;;;14.13;6.12;;;;;;;13.24;62.25;99807.83;1736996;81;21591;-54
2021/05/13 05:43:14;;;;;;;12.30;5.72;;;;;;;13.26;62.19;99806.95;1737191;82;20977;-54
2021/05/13 05:45:41;;;;;;;9.73;5.75;;;;;;;13.29;61.88;99803.61;1736992;82;20973;-54
2021/05/13 05:48:08;;;;;;;12.15;6.70;;;;;;;13.29;61.83;99803.61;1737035;82;21017;-53
2021/05/13 05:50:41;;;;;;;9.05;6.60;;;;;;;13.28;61.65;99804.72;1736838;82;21080;-52
2021/05/13 05:53:07;;;;;;;20.97;8.13;;;;;;;13.29;61.92;99800.85;1737007;82;20993;-54
2021/05/13 05:55:34;;;;;;;22.55;11.57;;;;;;;13.37;62.19;99798.76;1737131;82;21560;-54
2021/05/13 05:58:00;;;;;;;20.48;11.43;;;;;;;13.53;62.57;99810.86;1743434;82;21048;-52
2021/05/13 06:00:27;;;;;;;12.98;7.60;;;;;;;13.68;62.63;99803.64;1744968;82;21029;-53
2021/05/13 06:02:54;;;;;;;27.45;9.15;;;;;;;13.80;62.08;99805.31;1744987;81;21082;-53
2021/05/13 06:05:20;;;;;;;29.27;9.00;;;;;;;13.91;61.88;99806.45;1745185;82;21472;-53
2021/05/13 06:07:46;;;;;;;16.30;7.92;;;;;;;14.00;61.93;99805.41;1745102;82;21035;-53
2021/05/13 06:10:14;;;;;;;16.25;10.25;;;;;;;14.12;61.50;99795.76;1745179;81;21000;-53
2021/05/13 06:12:41;;;;;;;16.67;8.35;;;;;;;14.25;60.65;99803.16;1745130;82;21036;-53
2021/05/13 06:15:13;;;;;;;14.18;9.20;;;;;;;14.35;59.21;99808.44;1745135;82;21223;-53
2021/05/13 06:17:40;;;;;;;16.77;10.05;;;;;;;14.39;58.69;99804.49;1744533;82;21035;-53
2021/05/13 06:20:11;;;;;;;12.47;8.35;;;;;;;14.43;58.40;99804.12;1745120;82;20973;-53
2021/05/13 06:22:38;;;;;;;8.30;6.15;;;;;;;14.48;57.79;99799.83;1744540;82;21678;-53
2021/05/13 06:25:06;;;;;;;10.25;6.05;;;;;;;14.50;56.90;99800.89;1745218;82;21016;-53
2021/05/13 06:27:32;;;;;;;8.50;5.83;;;;;;;14.53;56.29;99803.02;1745326;81;21313;-53
2021/05/13 06:29:59;;;;;;;14.43;5.85;;;;;;;14.56;55.58;99802.96;1745174;81;20997;-54
2021/05/13 06:32:26;;;;;;;14.73;4.85;;;;;;;14.59;55.50;99807.85;1745164;82;21494;-54
2021/05/13 06:34:52;;;;;;;14.30;4.62;;;;;;;14.66;55.02;99809.09;1745009;82;21021;-53
2021/05/13 06:37:19;;;;;;;9.90;4.00;;;;;;;14.72;54.08;99813.92;1745343;82;21016;-53
2021/05/13 06:39:46;;;;;;;9.00;4.22;;;;;;;14.76;53.65;99819.06;1744991;80;21843;-53
2021/05/13 06:42:14;;;;;;;8.75;3.67;;;;;;;14.76;52.57;99819.06;1745003;82;20964;-53
2021/05/13 06:44:40;;;;;;;6.97;3.42;;;;;;;14.83;51.75;99826.89;1745140;82;20973;-53
2021/05/13 06:47:07;;;;;;;9.60;3.10;;;;;;;14.88;51.63;99819.86;1745271;82;21013;-54
2021/05/13 06:49:34;;;;;;;5.65;2.95;;;;;;;14.97;51.02;99825.42;1744956;82;21636;-54
2021/05/13 06:52:01;;;;;;;5.03;3.00;;;;;;;15.03;50.46;99826.36;1745321;82;21110;-54
2021/05/13 06:54:27;;;;;;;7.65;3.27;;;;;;;15.02;50.55;99817.81;1744965;82;21762;-54
2021/05/13 06:56:53;;;;;;;5.80;3.30;;;;;;;15.02;50.86;99817.00;1743635;82;20953;-54
2021/05/13 06:59:20;;;;;;;5.58;3.30;;;;;;;15.08;50.85;99819.88;1737046;82;21013;-53
2021/05/13 07:01:47;;;;;;;5.45;2.92;;;;;;;15.15;50.63;99821.61;1737012;82;20970;-53
2021/05/13 07:04:14;;;;;;;3.60;2.47;;;;;;;15.24;50.21;99815.30;1737030;82;21056;-54
2021/05/13 07:06:41;;;;;;;9.43;3.08;;;;;;;15.28;49.60;99809.38;1736870;82;21592;-54
2021/05/13 07:09:08;;;;;;;6.75;2.33;;;;;;;15.32;49.46;99809.80;1733065;81;20989;-53
2021/05/13 07:11:35;;;;;;;12.00;4.85;;;;;;;15.41;49.20;99816.73;1689363;82;21045;-53
2021/05/13 07:14:03;;;;;;;8.83;5.28;;;;;;;15.53;48.13;99800.34;1732072;82;21067;-53
2021/05/13 07:16:30;;;;;;;6.87;2.40;;;;;;;15.69;47.96;99813.70;1727605;82;21632;-53
2021/05/13 07:18:58;;;;;;;2.98;1.98;;;;;;;15.80;47.20;99815.06;1723236;82;21021;-54
2021/05/13 07:21:26;;;;;;;6.25;2.40;;;;;;;15.83;46.90;99805.30;1722599;82;20939;-54
2021/05/13 07:23:52;;;;;;;10.50;2.90;;;;;;;15.86;46.99;99806.02;1727139;81;21072;-54
2021/05/13 07:26:19;;;;;;;3.42;2.30;;;;;;;15.94;46.45;99792.77;1723650;81;21914;-52
2021/05/13 07:28:45;;;;;;;4.33;2.30;;;;;;;16.00;45.90;99790.65;1722394;81;21057;-53
2021/05/13 07:31:11;;;;;;;5.12;2.10;;;;;;;16.08;45.81;99797.34;1719561;81;21426;-53
2021/05/13 07:33:38;;;;;;;8.45;2.35;;;;;;;16.10;45.72;99794.47;1723882;81;20890;-53
2021/05/13 07:36:05;;;;;;;13.68;7.70;;;;;;;16.15;45.89;99792.13;1723752;82;22045;-53
2021/05/13 07:38:33;;;;;;;7.53;2.70;;;;;;;16.31;45.55;99788.29;1724581;82;20952;-53
2021/05/13 07:40:59;;;;;;;5.78;2.87;;;;;;;16.37;45.43;99789.73;1727447;82;21646;-54
2021/05/13 07:43:26;;;;;;;9.40;2.50;;;;;;;16.44;44.99;99789.25;1719534;82;20944;-53
2021/05/13 07:45:56;;;;;;;7.83;3.00;;;;;;;16.47;45.42;99788.00;1721334;82;20974;-54
2021/05/13 07:48:26;;;;;;;7.87;2.90;;;;;;;16.60;45.28;99784.80;1723843;82;20997;-52
2021/05/13 07:50:52;;;;;;;5.92;2.85;;;;;;;16.83;45.29;99786.77;1702463;82;20982;-52
2021/05/13 07:53:18;;;;;;;7.12;2.98;;;;;;;17.03;45.00;99792.78;1721763;82;21577;-53
2021/05/13 07:55:45;;;;;;;14.75;3.10;;;;;;;17.14;44.17;99791.27;1724555;81;20954;-53
2021/05/13 07:58:11;;;;;;;10.18;3.20;;;;;;;17.12;44.49;99788.02;1724620;81;21409;-53
2021/05/13 08:00:39;;;;;;;6.53;2.67;;;;;;;17.03;44.05;99785.84;1727270;82;21077;-53
2021/05/13 08:03:06;;;;;;;7.05;3.58;;;;;;;16.76;44.61;99776.76;1723500;82;20925;-53
2021/05/13 08:05:32;;;;;;;5.87;2.85;;;;;;;16.56;44.86;99780.50;1727773;82;21046;-53
2021/05/13 08:07:59;;;;;;;5.55;2.92;;;;;;;16.53;45.28;99774.23;1726578;82;20969;-53
2021/05/13 08:10:25;;;;;;;11.88;3.05;;;;;;;16.53;45.07;99784.49;1722448;82;20974;-54
2021/05/13 08:12:52;;;;;;;6.30;3.15;;;;;;;16.48;45.48;99773.02;1723947;80;20953;-55
2021/05/13 08:15:18;;;;;;;7.28;2.45;;;;;;;16.48;45.58;99781.33;1723384;80;20977;-55
2021/05/13 08:17:46;;;;;;;7.05;2.60;;;;;;;16.49;45.64;99781.58;1723114;82;21035;-55
2021/05/13 08:20:14;;;;;;;8.13;3.05;;;;;;;16.40;45.79;99779.37;1728376;82;21123;-55
2021/05/13 08:22:41;;;;;;;46.40;7.70;;;;;;;16.36;45.97;99790.32;1725102;80;21006;-54
2021/05/13 08:25:09;;;;;;;6.65;2.83;;;;;;;16.36;46.27;99791.70;1723865;82;20950;-54
2021/05/13 08:27:36;;;;;;;11.43;4.67;;;;;;;16.36;45.78;99783.39;1731081;81;20970;-54
2021/05/13 08:30:07;;;;;;;8.50;3.42;;;;;;;16.28;46.04;99795.30;1735314;81;20973;-54
2021/05/13 08:32:33;;;;;;;7.20;3.22;;;;;;;16.30;46.02;99788.03;1730102;82;20951;-55
2021/05/13 08:34:59;;;;;;;8.88;3.15;;;;;;;16.52;45.80;99793.39;1734848;82;20965;-55
2021/05/13 08:37:27;;;;;;;55.73;5.25;;;;;;;16.75;44.50;99789.02;1729421;82;20969;-54
2021/05/13 08:39:55;;;;;;;8.75;2.85;;;;;;;16.80;44.31;99791.59;1725862;82;20935;-55
2021/05/13 08:42:21;;;;;;;9.45;3.40;;;;;;;16.79;44.15;99778.89;1730670;82;21457;-54
2021/05/13 08:44:47;;;;;;;7.62;3.12;;;;;;;16.69;44.40;99784.77;1726730;82;21026;-55
2021/05/13 08:47:16;;;;;;;9.75;3.30;;;;;;;16.57;44.43;99777.95;1731509;82;21013;-54
2021/05/13 08:49:43;;;;;;;12.23;3.27;;;;;;;16.51;44.85;99775.70;1731205;82;20979;-55
2021/05/13 08:52:10;;;;;;;8.25;2.55;;;;;;;16.61;44.16;99784.25;1725953;82;21434;-55
2021/05/13 08:54:58;;;;;;;11.08;2.95;;;;;;;16.62;43.19;99777.54;1733997;82;21184;-55
2021/05/13 08:57:25;;;;;;;6.00;2.50;;;;;;;16.67;43.45;99784.30;1732052;82;20982;-53
2021/05/13 08:59:51;;;;;;;11.10;3.85;;;;;;;17.00;42.33;99787.31;1727258;80;21528;-53
2021/05/13 09:02:18;;;;;;;6.40;2.80;;;;;;;17.16;42.39;99777.89;1730599;82;20958;-54
2021/05/13 09:04:47;;;;;;;6.85;2.98;;;;;;;17.45;42.21;99785.39;1731557;80;20955;-54
2021/05/13 09:07:30;;;;;;;8.85;2.47;;;;;;;17.71;41.00;99785.00;1735614;82;21049;-54
2021/05/13 09:10:09;;;;;;;5.25;2.10;;;;;;;17.78;40.40;99793.61;1679532;84;21469;-53
2021/05/13 09:12:43;;;;;;;7.05;2.10;;;;;;;17.53;40.73;99792.03;1693114;84;21475;-54
2021/05/13 09:15:18;;;;;;;4.58;2.40;;;;;;;17.31;41.32;99789.57;1724108;80;21492;-53
2021/05/13 09:17:59;;;;;;;5.92;3.08;;;;;;;17.34;41.67;99788.31;1729495;80;21006;-53
2021/05/13 09:20:28;;;;;;;9.88;3.58;;;;;;;17.39;41.83;99774.81;1731836;80;21061;-54
2021/05/13 09:23:15;;;;;;;14.07;3.42;;;;;;;17.53;41.46;99777.34;1727369;80;21111;-54
2021/05/13 09:25:43;;;;;;;8.13;3.37;;;;;;;17.58;41.37;99782.72;1725081;82;21375;-54
2021/05/13 09:28:10;;;;;;;8.38;2.98;;;;;;;17.65;40.89;99779.39;1729407;80;21472;-54
2021/05/13 09:30:37;;;;;;;8.85;2.55;;;;;;;17.58;40.92;99779.36;1728920;82;20942;-54
2021/05/13 09:33:09;;;;;;;8.68;2.72;;;;;;;17.53;40.71;99769.02;1730071;82;21053;-53
2021/05/13 09:35:36;;;;;;;4.45;2.87;;;;;;;17.49;41.03;99775.84;1729646;82;20977;-53
2021/05/13 09:38:04;;;;;;;8.40;3.37;;;;;;;17.65;40.64;99766.89;1722879;82;20947;-54
2021/05/13 09:40:39;;;;;;;6.03;3.60;;;;;;;17.68;40.71;99764.86;1727524;82;21003;-55
2021/05/13 09:43:21;;;;;;;10.13;3.42;;;;;;;17.78;40.43;99772.78;1702580;82;21805;-54
2021/05/13 09:45:56;;;;;;;4.87;2.60;;;;;;;17.82;39.89;99768.18;1727975;80;21117;-53
2021/05/13 09:48:44;;;;;;;3.87;2.50;;;;;;;17.74;40.28;99780.16;1729730;82;21010;-57
2021/05/13 09:51:24;;;;;;;4.35;2.95;;;;;;;17.73;40.06;99771.58;1731988;82;21000;-55
2021/05/13 09:54:15;;;;;;;12.45;2.92;;;;;;;17.67;40.11;99767.39;1728644;82;21041;-54
2021/05/13 09:56:52;;;;;;;5.95;3.33;;;;;;;17.73;39.94;99772.41;1727181;82;21476;-53
2021/05/13 09:59:38;;;;;;;6.45;3.05;;;;;;;17.68;40.25;99769.82;1720679;81;21660;-55
2021/05/13 10:02:06;;;;;;;11.10;2.90;;;;;;;17.68;40.61;99765.66;1728907;82;21057;-54
2021/05/13 10:04:33;;;;;;;10.70;5.72;;;;;;;17.67;41.05;99772.35;1728475;82;20938;-54
2021/05/13 10:07:00;;;;;;;12.85;3.92;;;;;;;17.69;40.80;99760.91;1720387;82;21245;-55
2021/05/13 10:09:26;;;;;;;7.15;2.80;;;;;;;17.72;40.74;99770.78;1727486;82;20925;-55
2021/05/13 10:11:57;;;;;;;6.72;2.70;;;;;;;17.80;40.40;99771.85;1723552;82;21047;-55
2021/05/13 10:14:27;;;;;;;11.60;3.77;;;;;;;18.01;40.07;99768.31;1728135;82;20966;-54
2021/05/13 10:16:55;;;;;;;6.58;2.98;;;;;;;18.08;39.94;99766.59;1720812;82;20887;-60
2021/05/13 10:19:28;;;;;;;7.22;3.25;;;;;;;18.13;39.48;99766.95;1719485;82;20979;-55
2021/05/13 10:21:59;;;;;;;10.55;2.83;;;;;;;18.19;39.59;99754.50;1720359;82;21300;-59
2021/05/13 10:24:25;;;;;;;8.20;2.83;;;;;;;18.20;39.49;99767.22;1721772;81;21002;-54
2021/05/13 10:26:52;;;;;;;8.05;3.10;;;;;;;18.33;39.25;99776.42;1725971;82;20962;-54
2021/05/13 10:29:27;;;;;;;5.28;2.40;;;;;;;18.31;39.09;99762.87;1728677;82;20891;-54
2021/05/13 10:32:16;;;;;;;6.73;2.77;;;;;;;18.40;38.58;99771.70;1731350;81;22249;-54
2021/05/13 10:34:48;;;;;;;11.68;2.62;;;;;;;18.47;38.59;99769.18;1620769;87;20971;-53
2021/05/13 10:37:37;;;;;;;14.43;3.47;;;;;;;18.71;38.06;99764.27;1637906;85;21025;-53
2021/05/13 10:40:22;;;;;;;5.97;3.50;;;;;;;18.83;38.07;99756.51;1663876;85;20948;-54
2021/05/13 10:42:59;;;;;;;6.33;3.50;;;;;;;19.22;37.84;99764.01;1720630;82;20965;-55
2021/05/13 10:45:33;;;;;;;6.15;3.00;;;;;;;19.54;36.77;99748.09;1725896;82;21505;-54
2021/05/13 10:48:21;;;;;;;6.70;2.80;;;;;;;19.57;36.83;99744.59;1729691;82;20938;-55
2021/05/13 10:51:08;;;;;;;12.10;3.33;;;;;;;19.58;36.73;99741.45;1724314;82;21051;-56
2021/05/13 10:53:47;;;;;;;15.95;3.55;;;;;;;19.58;36.55;99733.70;1719160;82;21830;-55
2021/05/13 10:56:30;;;;;;;6.70;3.33;;;;;;;19.40;36.73;99734.52;1725739;81;21477;-55
2021/05/13 10:59:13;;;;;;;14.55;6.03;;;;;;;19.40;37.26;99742.87;1727285;82;20985;-53
2021/05/13 11:01:53;;;;;;;9.63;3.67;;;;;;;19.54;36.71;99737.75;1733306;82;20972;-52
2021/05/13 11:04:29;;;;;;;8.05;3.22;;;;;;;19.56;36.75;99738.20;1732727;80;21092;-55
2021/05/13 11:07:26;;;;;;;5.37;2.35;;;;;;;19.68;37.08;99735.98;1733164;82;22214;-51
2021/05/13 11:09:58;;;;;;;5.20;2.60;;;;;;;19.68;36.43;99743.75;1733476;82;20944;-54
2021/05/13 11:12:30;;;;;;;4.87;2.42;;;;;;;19.61;36.59;99737.97;1730789;82;20973;-55
2021/05/13 11:15:10;;;;;;;16.27;2.58;;;;;;;19.76;35.85;99734.22;1725973;82;20942;-55
2021/05/13 11:17:50;;;;;;;5.87;2.77;;;;;;;19.59;36.38;99729.72;1728666;82;22236;-55
2021/05/13 11:20:34;;;;;;;10.38;2.85;;;;;;;19.48;36.12;99725.23;1724696;82;20916;-55
2021/05/13 11:23:11;;;;;;;8.83;2.03;;;;;;;19.35;36.06;99728.63;1729878;82;20948;-54
2021/05/13 11:25:45;;;;;;;8.18;3.37;;;;;;;19.56;36.05;99724.27;1735266;82;20934;-54
2021/05/13 11:28:41;;;;;;;8.58;2.22;;;;;;;19.79;35.74;99725.17;1722930;82;21008;-54
2021/05/13 11:31:14;;;;;;;13.25;2.92;;;;;;;19.82;34.88;99731.43;1726614;82;21067;-54
2021/05/13 11:33:48;;;;;;;43.83;3.70;;;;;;;19.59;35.18;99736.69;1728996;81;20919;-54
2021/05/13 11:36:29;;;;;;;8.50;3.10;;;;;;;19.36;35.44;99728.03;1727418;80;21423;-53
2021/05/13 11:39:11;;;;;;;6.60;2.65;;;;;;;19.57;35.20;99735.65;1725026;82;21744;-54
2021/05/13 11:41:37;;;;;;;14.75;3.42;;;;;;;19.85;34.01;99734.93;1728533;81;20952;-53